createdAt,value
2023-02-05T00:02:10.065Z,100.00
2023-02-05T00:04:37.572Z,100.00
2023-02-05T00:07:04.940Z,100.00
2023-02-05T00:09:32.670Z,100.00
2023-02-05T00:12:00.012Z,100.00
2023-02-05T00:14:27.569Z,100.00
2023-02-05T00:16:58.579Z,100.00
2023-02-05T00:19:25.847Z,100.00
2023-02-05T00:21:53.135Z,100.00
2023-02-05T00:24:20.473Z,100.00
2023-02-05T00:26:47.858Z,100.00
2023-02-05T00:29:15.137Z,100.00
2023-02-05T00:31:42.467Z,100.00
2023-02-05T00:34:10.085Z,100.00
2023-02-05T00:36:37.365Z,100.00
2023-02-05T00:39:04.737Z,100.00
2023-02-05T00:41:31.928Z,100.00
2023-02-05T00:43:59.514Z,100.00
2023-02-05T00:46:27.501Z,100.00
2023-02-05T00:48:54.797Z,100.00
2023-02-05T00:51:22.005Z,100.00
2023-02-05T00:53:49.277Z,100.00
2023-02-05T00:56:16.625Z,100.00
2023-02-05T00:58:49.136Z,100.00
2023-02-05T01:01:16.703Z,100.00
2023-02-05T01:03:44.026Z,100.00
2023-02-05T01:06:11.634Z,100.00
2023-02-05T01:08:39.960Z,100.00
2023-02-05T01:11:08.566Z,100.00
2023-02-05T01:13:37.747Z,100.00
2023-02-05T01:16:05.672Z,100.00
2023-02-05T01:18:33.221Z,100.00
2023-02-05T01:21:00.864Z,100.00
2023-02-05T01:23:28.147Z,100.00
2023-02-05T01:25:55.453Z,100.00
2023-02-05T01:28:23.086Z,100.00
2023-02-05T01:30:50.740Z,100.00
2023-02-05T01:33:21.354Z,100.00
2023-02-05T01:35:48.574Z,100.00
2023-02-05T01:38:15.884Z,100.00
2023-02-05T01:40:44.696Z,100.00
2023-02-05T01:43:16.201Z,100.00
2023-02-05T01:45:50.776Z,100.00
2023-02-05T01:48:23.927Z,100.00
2023-02-05T01:50:57.376Z,100.00
2023-02-05T01:53:29.978Z,100.00
2023-02-05T01:55:58.939Z,100.00
2023-02-05T01:58:26.986Z,100.00
2023-02-05T02:00:54.205Z,100.00
2023-02-05T02:03:21.418Z,100.00
2023-02-05T02:05:48.721Z,100.00
2023-02-05T02:08:16.018Z,100.00
2023-02-05T02:10:43.589Z,100.00
2023-02-05T02:13:11.365Z,100.00
2023-02-05T02:15:38.733Z,100.00
2023-02-05T02:18:27.650Z,100.00
2023-02-05T02:21:10.400Z,100.00
2023-02-05T02:24:11.823Z,100.00
2023-02-05T02:26:42.698Z,100.00
2023-02-05T02:29:13.404Z,100.00
2023-02-05T02:32:33.036Z,100.00
2023-02-05T02:35:25.412Z,100.00
2023-02-05T02:38:17.119Z,100.00
2023-02-05T02:40:55.010Z,100.00
2023-02-05T02:43:45.044Z,100.00
2023-02-05T02:46:37.751Z,100.00
2023-02-05T02:49:06.459Z,100.00
2023-02-05T02:51:34.515Z,100.00
2023-02-05T02:54:04.605Z,100.00
2023-02-05T02:56:31.846Z,100.00
2023-02-05T02:59:06.439Z,100.00
2023-02-05T03:01:34.883Z,100.00
2023-02-05T03:04:08.803Z,100.00
2023-02-05T03:06:36.087Z,100.00
2023-02-05T03:09:18.232Z,100.00
2023-02-05T03:11:45.538Z,100.00
2023-02-05T03:14:13.383Z,100.00
2023-02-05T03:16:40.594Z,100.00
2023-02-05T03:19:08.072Z,100.00
2023-02-05T03:21:38.489Z,100.00
2023-02-05T03:24:06.058Z,100.00
2023-02-05T03:26:38.335Z,100.00
2023-02-05T03:29:07.258Z,100.00
2023-02-05T03:31:49.717Z,100.00
2023-02-05T03:34:19.651Z,100.00
2023-02-05T03:36:50.059Z,100.00
2023-02-05T03:39:40.072Z,100.00
2023-02-05T03:42:18.147Z,100.00
2023-02-05T03:45:03.198Z,100.00
2023-02-05T03:47:49.746Z,100.00
2023-02-05T03:51:15.678Z,100.00
2023-02-05T03:54:06.446Z,100.00
2023-02-05T03:56:56.037Z,100.00
2023-02-05T03:59:23.269Z,100.00
2023-02-05T04:01:50.779Z,100.00
2023-02-05T04:04:18.014Z,100.00
2023-02-05T04:06:46.925Z,100.00
2023-02-05T04:09:14.427Z,100.00
2023-02-05T04:11:41.661Z,100.00
2023-02-05T04:14:09.510Z,100.00
2023-02-05T04:16:36.981Z,100.00
2023-02-05T04:19:04.365Z,100.00
2023-02-05T04:21:31.610Z,100.00
2023-02-05T04:23:58.869Z,100.00
2023-02-05T04:26:26.190Z,100.00
2023-02-05T04:28:53.425Z,100.00
2023-02-05T04:31:20.635Z,100.00
2023-02-05T04:33:48.105Z,100.00
2023-02-05T04:36:15.460Z,100.00
2023-02-05T04:38:42.818Z,100.00
2023-02-05T04:41:10.096Z,100.00
2023-02-05T04:43:37.737Z,100.00
2023-02-05T04:46:08.706Z,100.00
2023-02-05T04:48:36.209Z,100.00
2023-02-05T04:51:11.078Z,100.00
2023-02-05T04:53:39.614Z,100.00
2023-02-05T04:56:11.658Z,100.00
2023-02-05T04:58:38.951Z,100.00
2023-02-05T05:01:17.083Z,100.00
2023-02-05T05:03:44.797Z,100.00
2023-02-05T05:06:12.789Z,100.00
2023-02-05T05:08:40.675Z,100.00
2023-02-05T05:11:17.327Z,100.00
2023-02-05T05:13:44.998Z,100.00
2023-02-05T05:16:12.309Z,100.00
2023-02-05T05:18:39.771Z,100.00
2023-02-05T05:21:07.269Z,100.00
2023-02-05T05:23:35.826Z,100.00
2023-02-05T05:26:09.823Z,100.00
2023-02-05T05:28:37.334Z,100.00
2023-02-05T05:31:13.520Z,100.00
2023-02-05T05:33:40.893Z,100.00
2023-02-05T05:36:08.550Z,100.00
2023-02-05T05:38:36.080Z,100.00
2023-02-05T05:41:22.464Z,100.00
2023-02-05T05:43:49.949Z,100.00
2023-02-05T05:46:26.351Z,100.00
2023-02-05T05:48:58.734Z,100.00
2023-02-05T05:51:26.827Z,100.00
2023-02-05T05:53:54.562Z,100.00
2023-02-05T05:56:21.950Z,100.00
2023-02-05T05:58:49.268Z,100.00
2023-02-05T06:01:17.598Z,100.00
2023-02-05T06:03:44.852Z,100.00
2023-02-05T06:06:12.222Z,100.00
2023-02-05T06:08:39.621Z,100.00
2023-02-05T06:11:06.939Z,100.00
2023-02-05T06:13:34.998Z,100.00
2023-02-05T06:16:02.657Z,100.00
2023-02-05T06:18:30.946Z,100.00
2023-02-05T06:20:58.332Z,100.00
2023-02-05T06:23:25.571Z,100.00
2023-02-05T06:25:52.903Z,100.00
2023-02-05T06:28:20.348Z,100.00
2023-02-05T06:30:47.726Z,100.00
2023-02-05T06:33:15.124Z,100.00
2023-02-05T06:35:42.442Z,100.00
2023-02-05T06:38:09.979Z,100.00
2023-02-05T06:40:37.609Z,100.00
2023-02-05T06:43:05.105Z,100.00
2023-02-05T06:45:32.854Z,100.00
2023-02-05T06:48:00.339Z,100.00
2023-02-05T06:50:27.682Z,100.00
2023-02-05T06:52:54.949Z,100.00
2023-02-05T06:55:22.686Z,100.00
2023-02-05T06:57:49.992Z,100.00
2023-02-05T07:00:17.530Z,100.00
2023-02-05T07:02:44.891Z,100.00
2023-02-05T07:05:12.269Z,100.00
2023-02-05T07:07:39.818Z,100.00
2023-02-05T07:10:07.414Z,100.00
2023-02-05T07:12:34.750Z,100.00
2023-02-05T07:15:02.003Z,100.00
2023-02-05T07:17:29.807Z,100.00
2023-02-05T07:19:58.802Z,100.00
2023-02-05T07:22:26.237Z,100.00
2023-02-05T07:24:53.538Z,100.00
2023-02-05T07:27:21.065Z,100.00
2023-02-05T07:29:48.287Z,100.00
2023-02-05T07:32:15.788Z,100.00
2023-02-05T07:34:43.925Z,100.00
2023-02-05T07:37:13.113Z,100.00
2023-02-05T07:39:40.449Z,100.00
2023-02-05T07:42:07.772Z,100.00
2023-02-05T07:44:34.987Z,100.00
2023-02-05T07:47:02.347Z,100.00
2023-02-05T07:49:29.617Z,100.00
2023-02-05T07:51:57.475Z,100.00
2023-02-05T07:54:24.787Z,100.00
2023-02-05T07:56:52.027Z,100.00
2023-02-05T07:59:19.273Z,100.00
2023-02-05T08:01:46.599Z,100.00
2023-02-05T08:04:14.010Z,100.00
2023-02-05T08:06:41.792Z,100.00
2023-02-05T08:09:09.355Z,100.00
2023-02-05T08:11:36.697Z,100.00
2023-02-05T08:14:05.319Z,100.00
2023-02-05T08:16:33.344Z,100.00
2023-02-05T08:19:00.628Z,100.00
2023-02-05T08:21:27.869Z,100.00
2023-02-05T08:23:57.600Z,100.00
2023-02-05T08:26:24.802Z,100.00
2023-02-05T08:28:52.022Z,100.00
2023-02-05T08:31:19.832Z,100.00
2023-02-05T08:33:47.873Z,100.00
2023-02-05T08:36:15.206Z,100.00
2023-02-05T08:38:42.563Z,100.00
2023-02-05T08:41:13.407Z,100.00
2023-02-05T08:43:45.455Z,100.00
2023-02-05T08:46:14.413Z,100.00
2023-02-05T08:48:42.190Z,100.00
2023-02-05T08:51:10.761Z,100.00
2023-02-05T08:53:38.217Z,100.00
2023-02-05T08:56:06.415Z,100.00
2023-02-05T08:58:33.759Z,100.00
2023-02-05T09:01:02.934Z,100.00
2023-02-05T09:03:30.766Z,100.00
2023-02-05T09:05:58.963Z,100.00
2023-02-05T09:08:27.328Z,100.00
2023-02-05T09:10:54.695Z,100.00
2023-02-05T09:13:22.876Z,100.00
2023-02-05T09:15:51.074Z,100.00
2023-02-05T09:18:18.544Z,100.00
2023-02-05T09:20:47.209Z,100.00
2023-02-05T09:23:16.354Z,100.00
2023-02-05T09:25:43.617Z,100.00
2023-02-05T09:28:12.354Z,99.94
2023-02-05T09:30:42.983Z,100.00
2023-02-05T09:33:10.916Z,100.00
2023-02-05T09:35:38.176Z,100.00
2023-02-05T09:38:05.978Z,100.00
2023-02-05T09:40:48.248Z,100.00
2023-02-05T09:43:48.672Z,100.00
2023-02-05T09:46:40.459Z,100.00
2023-02-05T09:49:11.360Z,100.00
2023-02-05T09:51:44.077Z,100.00
2023-02-05T09:54:17.311Z,100.00
2023-02-05T09:56:44.867Z,100.00
2023-02-05T09:59:32.261Z,100.00
2023-02-05T10:02:01.032Z,100.00
2023-02-05T10:04:28.329Z,99.24
2023-02-05T10:07:07.808Z,98.40
2023-02-05T10:10:12.570Z,97.47
2023-02-05T10:13:12.302Z,95.84
2023-02-05T10:16:04.523Z,93.23
2023-02-05T10:18:34.885Z,90.60
2023-02-05T10:21:26.963Z,90.93
2023-02-05T10:24:31.698Z,92.15
2023-02-05T10:27:19.238Z,90.25
2023-02-05T10:29:58.090Z,89.67
2023-02-05T10:32:45.968Z,88.87
2023-02-05T10:35:44.371Z,90.48
2023-02-05T10:38:23.119Z,92.32
2023-02-05T10:40:51.946Z,92.79
2023-02-05T10:43:24.833Z,93.96
2023-02-05T10:45:52.489Z,95.32
2023-02-05T10:48:25.848Z,97.71
2023-02-05T10:51:04.202Z,97.89
2023-02-05T10:53:33.116Z,98.98
2023-02-05T10:56:01.065Z,99.25
2023-02-05T10:58:28.501Z,99.41
2023-02-05T11:00:55.708Z,100.00
2023-02-05T11:03:23.023Z,100.00
2023-02-05T11:05:50.324Z,100.00
2023-02-05T11:08:40.751Z,100.00
2023-02-05T11:11:22.728Z,100.00
2023-02-05T11:13:57.673Z,98.60
2023-02-05T11:16:41.790Z,99.46
2023-02-05T11:19:27.036Z,99.39
2023-02-05T11:21:56.170Z,100.00
2023-02-05T11:24:33.875Z,100.00
2023-02-05T11:27:16.252Z,100.00
2023-02-05T11:29:43.553Z,100.00
2023-02-05T11:32:35.121Z,100.00
2023-02-05T11:35:20.347Z,100.00
2023-02-05T11:38:08.692Z,100.00
2023-02-05T11:40:36.409Z,100.00
2023-02-05T11:43:08.465Z,100.00
2023-02-05T11:45:37.840Z,100.00
2023-02-05T11:48:26.744Z,100.00
2023-02-05T11:50:53.969Z,100.00
2023-02-05T11:53:21.312Z,100.00
2023-02-05T11:55:54.138Z,100.00
2023-02-05T11:58:34.825Z,100.00
2023-02-05T12:01:23.965Z,100.00
2023-02-05T12:04:23.702Z,100.00
2023-02-05T12:06:53.580Z,100.00
2023-02-05T12:09:22.743Z,100.00
2023-02-05T12:12:27.176Z,96.57
2023-02-05T12:15:15.520Z,92.33
2023-02-05T12:18:06.650Z,91.58
2023-02-05T12:21:04.912Z,90.65
2023-02-05T12:23:32.170Z,90.97
2023-02-05T12:26:11.298Z,88.72
2023-02-05T12:29:13.042Z,87.50
2023-02-05T12:31:55.967Z,91.36
2023-02-05T12:34:27.998Z,93.88
2023-02-05T12:37:16.638Z,96.14
2023-02-05T12:39:54.553Z,97.59
2023-02-05T12:42:54.592Z,98.61
2023-02-05T12:45:57.190Z,100.00
2023-02-05T12:48:40.220Z,100.00
2023-02-05T12:51:48.340Z,99.99
2023-02-05T12:54:39.702Z,97.75
2023-02-05T12:57:19.005Z,98.01
2023-02-05T12:59:50.925Z,97.78
2023-02-05T13:02:46.321Z,96.08
2023-02-05T13:05:21.718Z,97.47
2023-02-05T13:08:00.900Z,97.52
2023-02-05T13:10:31.273Z,99.83
2023-02-05T13:13:00.689Z,100.00
2023-02-05T13:15:30.915Z,100.00
2023-02-05T13:18:05.409Z,100.00
2023-02-05T13:20:58.255Z,100.00
2023-02-05T13:23:43.969Z,100.00
2023-02-05T13:26:30.130Z,100.00
2023-02-05T13:29:00.248Z,100.00
2023-02-05T13:31:57.066Z,100.00
2023-02-05T13:34:26.365Z,100.00
2023-02-05T13:37:19.665Z,100.00
2023-02-05T13:40:08.799Z,100.00
2023-02-05T13:42:46.463Z,100.00
2023-02-05T13:45:23.284Z,100.00
2023-02-05T13:47:50.389Z,100.00
2023-02-05T13:50:42.496Z,100.00
2023-02-05T13:53:38.755Z,100.00
2023-02-05T13:56:19.775Z,100.00
2023-02-05T13:58:57.713Z,100.00
2023-02-05T14:01:44.849Z,100.00
2023-02-05T14:04:29.002Z,100.00
2023-02-05T14:06:58.680Z,100.00
2023-02-05T14:09:43.443Z,100.00
2023-02-05T14:12:12.764Z,100.00
2023-02-05T14:14:41.868Z,100.00
2023-02-05T14:17:27.575Z,100.00
2023-02-05T14:19:57.294Z,100.00
2023-02-05T14:22:43.924Z,100.00
2023-02-05T14:25:36.849Z,100.00
2023-02-05T14:28:24.514Z,100.00
2023-02-05T14:31:03.591Z,100.00
2023-02-05T14:33:41.768Z,100.00
2023-02-05T14:36:22.473Z,100.00
2023-02-05T14:39:03.372Z,100.00
2023-02-05T14:41:50.427Z,100.00
2023-02-05T14:44:23.597Z,100.00
2023-02-05T14:47:06.282Z,100.00
2023-02-05T14:49:35.013Z,100.00
2023-02-05T14:52:08.466Z,100.00
2023-02-05T14:54:57.308Z,100.00
2023-02-05T14:57:49.566Z,100.00
2023-02-05T15:00:27.597Z,100.00
2023-02-05T15:03:06.206Z,100.00
2023-02-05T15:05:49.125Z,100.00
2023-02-05T15:08:34.395Z,100.00
2023-02-05T15:11:15.611Z,100.00
2023-02-05T15:13:42.855Z,100.00
2023-02-05T15:16:14.185Z,100.00
2023-02-05T15:18:44.853Z,100.00
2023-02-05T15:21:15.774Z,100.00
2023-02-05T15:23:48.482Z,100.00
2023-02-05T15:26:39.918Z,100.00
2023-02-05T15:29:07.979Z,100.00
2023-02-05T15:31:54.996Z,100.00
2023-02-05T15:34:25.238Z,100.00
2023-02-05T15:36:59.899Z,100.00
2023-02-05T15:39:44.813Z,100.00
2023-02-05T15:42:16.996Z,100.00
2023-02-05T15:44:44.226Z,100.00
2023-02-05T15:47:19.395Z,100.00
2023-02-05T15:49:51.921Z,100.00
2023-02-05T15:52:28.994Z,100.00
2023-02-05T15:54:57.839Z,100.00
2023-02-05T15:57:27.666Z,100.00
2023-02-05T15:59:55.150Z,100.00
2023-02-05T16:02:29.645Z,100.00
2023-02-05T16:04:58.841Z,100.00
2023-02-05T16:07:30.934Z,100.00
2023-02-05T16:09:59.688Z,100.00
2023-02-05T16:12:27.048Z,100.00
2023-02-05T16:15:01.929Z,100.00
2023-02-05T16:17:45.613Z,100.00
2023-02-05T16:20:39.505Z,100.00
2023-02-05T16:23:08.965Z,100.00
2023-02-05T16:26:05.556Z,100.00
2023-02-05T16:28:38.700Z,100.00
2023-02-05T16:31:06.070Z,100.00
2023-02-05T16:33:38.149Z,100.00
2023-02-05T16:36:07.477Z,100.00
2023-02-05T16:38:34.735Z,100.00
2023-02-05T16:41:37.383Z,100.00
2023-02-05T16:44:06.245Z,100.00
2023-02-05T16:46:35.076Z,100.00
2023-02-05T16:49:24.688Z,100.00
2023-02-05T16:51:55.284Z,100.00
2023-02-05T16:54:29.784Z,100.00
2023-02-05T16:57:08.566Z,100.00
2023-02-05T16:59:46.798Z,100.00
2023-02-05T17:02:42.759Z,100.00
2023-02-05T17:05:24.266Z,100.00
2023-02-05T17:08:01.327Z,100.00
2023-02-05T17:10:28.995Z,100.00
2023-02-05T17:13:05.210Z,100.00
2023-02-05T17:15:37.526Z,100.00
2023-02-05T17:18:43.236Z,100.00
2023-02-05T17:21:21.152Z,100.00
2023-02-05T17:23:52.026Z,100.00
2023-02-05T17:26:20.144Z,100.00
2023-02-05T17:28:51.565Z,100.00
2023-02-05T17:31:18.857Z,100.00
2023-02-05T17:33:52.189Z,100.00
2023-02-05T17:36:19.486Z,100.00
2023-02-05T17:38:48.711Z,100.00
2023-02-05T17:41:48.601Z,100.00
2023-02-05T17:44:16.148Z,100.00
2023-02-05T17:46:43.952Z,100.00
2023-02-05T17:49:11.301Z,100.00
2023-02-05T17:51:44.675Z,100.00
2023-02-05T17:54:16.048Z,100.00
2023-02-05T17:56:44.724Z,100.00
2023-02-05T17:59:12.815Z,100.00
2023-02-05T18:01:40.794Z,100.00
2023-02-05T18:04:08.054Z,100.00
2023-02-05T18:06:36.026Z,100.00
2023-02-05T18:09:03.453Z,100.00
2023-02-05T18:11:33.293Z,100.00
2023-02-05T18:14:01.311Z,100.00
2023-02-05T18:16:29.443Z,100.00
2023-02-05T18:18:57.032Z,100.00
2023-02-05T18:21:24.834Z,100.00
2023-02-05T18:23:55.101Z,100.00
2023-02-05T18:26:22.386Z,100.00
2023-02-05T18:28:51.329Z,100.00
2023-02-05T18:31:18.868Z,100.00
2023-02-05T18:33:47.834Z,100.00
2023-02-05T18:36:15.287Z,100.00
2023-02-05T18:38:45.274Z,100.00
2023-02-05T18:41:15.208Z,100.00
2023-02-05T18:43:42.739Z,100.00
2023-02-05T18:46:15.013Z,100.00
2023-02-05T18:48:42.396Z,100.00
2023-02-05T18:51:11.615Z,100.00
2023-02-05T18:53:39.797Z,100.00
2023-02-05T18:56:14.350Z,100.00
2023-02-05T18:58:41.791Z,100.00
2023-02-05T19:01:11.316Z,100.00
2023-02-05T19:03:40.746Z,100.00
2023-02-05T19:06:08.865Z,100.00
2023-02-05T19:08:37.329Z,100.00
2023-02-05T19:11:10.178Z,100.00
2023-02-05T19:13:37.597Z,100.00
2023-02-05T19:16:11.466Z,100.00
2023-02-05T19:18:40.188Z,100.00
2023-02-05T19:21:10.674Z,100.00
2023-02-05T19:23:38.329Z,100.00
2023-02-05T19:26:16.671Z,100.00
2023-02-05T19:28:44.692Z,100.00
2023-02-05T19:31:13.682Z,100.00
2023-02-05T19:33:41.120Z,100.00
2023-02-05T19:36:09.383Z,100.00
2023-02-05T19:38:37.707Z,100.00
2023-02-05T19:41:08.935Z,100.00
2023-02-05T19:43:36.497Z,100.00
2023-02-05T19:46:04.904Z,100.00
2023-02-05T19:48:33.003Z,100.00
2023-02-05T19:51:07.243Z,100.00
2023-02-05T19:53:34.992Z,100.00
2023-02-05T19:56:06.947Z,100.00
2023-02-05T19:58:34.861Z,100.00
2023-02-05T20:01:02.187Z,100.00
2023-02-05T20:03:29.849Z,100.00
2023-02-05T20:06:01.020Z,100.00
2023-02-05T20:08:29.410Z,100.00
2023-02-05T20:11:00.656Z,100.00
2023-02-05T20:13:29.101Z,100.00
2023-02-05T20:15:56.605Z,100.00
2023-02-05T20:18:24.054Z,100.00
2023-02-05T20:20:52.070Z,100.00
2023-02-05T20:23:21.089Z,100.00
2023-02-05T20:25:57.713Z,100.00
2023-02-05T20:28:27.567Z,100.00
2023-02-05T20:31:13.467Z,100.00
2023-02-05T20:33:40.909Z,100.00
2023-02-05T20:36:09.518Z,100.00
2023-02-05T20:38:36.869Z,100.00
2023-02-05T20:41:15.108Z,100.00
2023-02-05T20:43:42.443Z,100.00
2023-02-05T20:46:10.760Z,100.00
2023-02-05T20:48:38.679Z,100.00
2023-02-05T20:51:10.883Z,100.00
2023-02-05T20:53:38.610Z,100.00
2023-02-05T20:56:10.143Z,100.00
2023-02-05T20:58:38.791Z,100.00
2023-02-05T21:01:14.510Z,100.00
2023-02-05T21:03:44.019Z,100.00
2023-02-05T21:06:11.378Z,100.00
2023-02-05T21:08:44.304Z,100.00
2023-02-05T21:11:11.655Z,100.00
2023-02-05T21:13:38.900Z,100.00
2023-02-05T21:16:06.834Z,100.00
2023-02-05T21:18:34.112Z,100.00
2023-02-05T21:21:08.057Z,100.00
2023-02-05T21:23:35.624Z,100.00
2023-02-05T21:26:02.990Z,100.00
2023-02-05T21:28:30.374Z,100.00
2023-02-05T21:31:02.510Z,100.00
2023-02-05T21:33:30.027Z,100.00
2023-02-05T21:35:57.874Z,100.00
2023-02-05T21:38:30.770Z,100.00
2023-02-05T21:40:58.664Z,100.00
2023-02-05T21:43:26.076Z,100.00
2023-02-05T21:45:53.346Z,100.00
2023-02-05T21:48:20.917Z,100.00
2023-02-05T21:50:48.228Z,100.00
2023-02-05T21:53:16.908Z,100.00
2023-02-05T21:55:44.129Z,100.00
2023-02-05T21:58:11.400Z,100.00
2023-02-05T22:00:39.846Z,100.00
2023-02-05T22:03:09.564Z,100.00
2023-02-05T22:05:40.401Z,100.00
2023-02-05T22:08:11.595Z,100.00
2023-02-05T22:10:39.134Z,100.00
2023-02-05T22:13:06.359Z,100.00
2023-02-05T22:15:34.020Z,100.00
2023-02-05T22:18:03.047Z,100.00
2023-02-05T22:20:30.382Z,100.00
2023-02-05T22:22:57.603Z,100.00
2023-02-05T22:25:24.979Z,100.00
2023-02-05T22:27:52.847Z,100.00
2023-02-05T22:30:20.276Z,100.00
2023-02-05T22:32:47.670Z,100.00
2023-02-05T22:35:15.049Z,100.00
2023-02-05T22:37:42.293Z,100.00
2023-02-05T22:40:09.894Z,100.00
2023-02-05T22:42:37.624Z,100.00
2023-02-05T22:45:05.717Z,100.00
2023-02-05T22:47:33.359Z,100.00
2023-02-05T22:50:02.100Z,100.00
2023-02-05T22:52:30.314Z,100.00
2023-02-05T22:54:57.543Z,100.00
2023-02-05T22:57:24.981Z,100.00
2023-02-05T22:59:52.193Z,100.00
2023-02-05T23:02:19.654Z,100.00
2023-02-05T23:04:47.026Z,100.00
2023-02-05T23:07:14.292Z,100.00
2023-02-05T23:09:41.624Z,100.00
2023-02-05T23:12:09.872Z,100.00
2023-02-05T23:14:37.143Z,100.00
2023-02-05T23:17:05.116Z,100.00
2023-02-05T23:19:32.480Z,100.00
2023-02-05T23:21:59.768Z,100.00
2023-02-05T23:24:27.012Z,100.00
2023-02-05T23:26:54.775Z,100.00
2023-02-05T23:29:22.336Z,100.00
2023-02-05T23:31:50.048Z,100.00
2023-02-05T23:34:17.340Z,100.00
2023-02-05T23:36:45.173Z,100.00
2023-02-05T23:39:12.439Z,100.00
2023-02-05T23:41:40.043Z,100.00
2023-02-05T23:44:20.193Z,100.00
2023-02-05T23:46:48.401Z,100.00
2023-02-05T23:49:15.956Z,100.00
2023-02-05T23:51:43.398Z,100.00
2023-02-05T23:54:11.129Z,100.00
2023-02-05T23:56:39.419Z,100.00
2023-02-05T23:59:07.778Z,100.00
